Time;durP1;ratioP1;P1;durP2;ratioP2;P2;SDS_P1;SDS_P2;PMS_P1;PMS_P2;Temp;Humidity;BMP_temperature;BMP_pressure;BME280_temperature;BME280_humidity;BME280_pressure;Samples;Min_cycle;Max_cycle;Signal;HPM_P1;HPM_P2
2023/10/17 00:01:54;;;;;;;822.67;784.40;;;;;;;11.00;63.80;98878.00;5040766;27;102595;-68
2023/10/17 00:04:32;;;;;;;875.88;833.28;;;;;;;11.57;62.03;98875.59;5040275;27;103128;-68
2023/10/17 00:07:02;;;;;;;831.95;793.28;;;;;;;10.24;65.59;98877.22;5039651;27;103815;-67
2023/10/17 00:09:36;;;;;;;793.05;757.65;;;;;;;10.34;65.64;98872.16;5039778;27;103881;-68
2023/10/17 00:12:15;;;;;;;800.40;763.35;;;;;;;10.29;65.27;98869.84;5038391;27;102631;-67
2023/10/17 00:14:46;;;;;;;800.20;763.73;;;;;;;10.73;65.02;98858.81;5040421;27;103017;-68
2023/10/17 00:17:16;;;;;;;787.60;751.95;;;;;;;10.41;65.42;98852.31;5036353;27;104417;-66
2023/10/17 00:19:44;;;;;;;800.80;763.80;;;;;;;10.83;64.04;98849.31;5037763;27;103336;-67
2023/10/17 00:22:18;;;;;;;848.03;807.53;;;;;;;11.26;62.03;98838.25;5037885;27;103078;-68
2023/10/17 00:24:47;;;;;;;783.38;747.78;;;;;;;10.35;64.93;98836.88;5050797;27;103667;-67
2023/10/17 00:27:16;;;;;;;830.33;792.38;;;;;;;10.65;64.56;98828.59;5039662;27;104068;-67
2023/10/17 00:29:46;;;;;;;811.03;774.07;;;;;;;9.84;65.61;98820.97;5037586;27;103313;-68
2023/10/17 00:32:15;;;;;;;782.90;748.13;;;;;;;9.44;68.33;98823.69;5033460;27;102922;-68
2023/10/17 00:34:46;;;;;;;769.15;735.78;;;;;;;9.00;70.32;98816.06;5034605;27;104128;-68
2023/10/17 00:37:15;;;;;;;747.08;714.40;;;;;;;8.93;70.42;98815.59;5036384;27;104332;-68
2023/10/17 00:39:43;;;;;;;764.78;730.83;;;;;;;9.73;67.63;98810.28;5031723;27;104451;-68
2023/10/17 00:42:17;;;;;;;753.75;720.45;;;;;;;9.72;66.52;98816.50;5039514;27;102604;-68
2023/10/17 00:44:47;;;;;;;767.10;733.22;;;;;;;9.61;67.05;98815.53;5038153;27;103560;-67
2023/10/17 00:47:18;;;;;;;749.83;717.33;;;;;;;9.20;68.68;98818.25;5032712;27;103153;-68
2023/10/17 00:49:49;;;;;;;757.60;725.22;;;;;;;9.20;68.93;98815.63;5038046;27;104051;-68
2023/10/17 00:52:25;;;;;;;763.78;730.85;;;;;;;9.82;68.03;98807.00;5039190;27;103710;-67
2023/10/17 00:54:59;;;;;;;821.50;784.50;;;;;;;10.19;66.13;98796.66;5038241;27;102807;-68
2023/10/17 00:57:27;;;;;;;804.73;767.97;;;;;;;10.43;64.50;98793.13;5037845;27;103303;-68
2023/10/17 00:59:55;;;;;;;846.27;805.90;;;;;;;10.81;62.83;98792.19;5036870;27;103198;-68
2023/10/17 01:02:29;;;;;;;813.83;776.47;;;;;;;10.30;63.15;98792.28;5038593;27;102773;-68
2023/10/17 01:04:59;;;;;;;754.42;722.15;;;;;;;9.34;67.37;98805.03;5037589;27;102743;-69
2023/10/17 01:07:29;;;;;;;749.13;717.22;;;;;;;9.25;68.26;98806.47;5038662;27;104137;-68
2023/10/17 01:10:09;;;;;;;709.20;679.53;;;;;;;8.28;71.92;98793.38;5039512;27;103381;-68
2023/10/17 01:12:45;;;;;;;681.00;652.97;;;;;;;8.26;74.78;98792.59;5036563;27;102771;-68
2023/10/17 01:15:22;;;;;;;648.72;623.00;;;;;;;7.55;78.13;98796.94;5036943;27;104013;-68
2023/10/17 01:17:54;;;;;;;618.08;593.63;;;;;;;7.70;78.22;98803.91;5033653;27;104269;-67
2023/10/17 01:20:22;;;;;;;662.70;635.92;;;;;;;8.74;73.30;98799.25;5039715;27;103215;-67
2023/10/17 01:22:55;;;;;;;696.65;668.22;;;;;;;9.02;72.16;98799.19;5035311;27;102997;-68
2023/10/17 01:25:26;;;;;;;725.53;694.70;;;;;;;9.36;69.19;98802.28;5037528;27;104476;-68
2023/10/17 01:27:55;;;;;;;818.92;782.28;;;;;;;10.08;66.20;98786.75;5037571;27;103957;-68
2023/10/17 01:30:29;;;;;;;857.92;817.33;;;;;;;10.72;63.62;98780.47;5036610;27;104373;-67
2023/10/17 01:32:59;;;;;;;936.57;887.27;;;;;;;10.98;61.81;98790.03;5039351;27;102953;-68
2023/10/17 01:35:27;;;;;;;896.07;851.27;;;;;;;10.72;60.33;98788.41;5043007;27;103938;-67
2023/10/17 01:37:56;;;;;;;836.70;796.92;;;;;;;10.50;61.19;98788.25;5040555;27;104099;-67
2023/10/17 01:40:27;;;;;;;846.83;807.03;;;;;;;10.52;62.21;98791.66;5038979;27;104308;-67
2023/10/17 01:42:58;;;;;;;816.07;778.90;;;;;;;9.91;62.58;98792.34;5043418;27;102971;-68
2023/10/17 01:45:26;;;;;;;786.47;751.40;;;;;;;10.04;62.84;98792.38;5040881;27;103382;-67
2023/10/17 01:47:55;;;;;;;801.30;765.40;;;;;;;9.98;61.98;98782.22;5042091;27;103347;-67
2023/10/17 01:50:24;;;;;;;786.70;751.78;;;;;;;9.86;62.59;98779.47;5036609;27;103218;-67
2023/10/17 01:52:53;;;;;;;784.65;749.88;;;;;;;9.62;64.06;98782.94;5039973;27;104120;-68
2023/10/17 01:55:25;;;;;;;795.73;760.97;;;;;;;9.44;64.52;98787.63;5039978;27;103738;-68
2023/10/17 01:57:58;;;;;;;776.90;742.53;;;;;;;10.00;63.53;98791.72;5038594;27;104308;-68
2023/10/17 02:00:37;;;;;;;776.00;741.53;;;;;;;9.26;66.14;98796.78;5036370;27;104262;-67
2023/10/17 02:03:06;;;;;;;744.67;713.38;;;;;;;8.96;67.30;98794.31;5042344;27;102889;-68
2023/10/17 02:05:35;;;;;;;708.97;678.97;;;;;;;8.85;67.59;98793.31;5039649;27;103854;-68
2023/10/17 02:08:05;;;;;;;715.97;686.20;;;;;;;8.91;68.30;98779.75;5041267;27;104082;-67
2023/10/17 02:10:33;;;;;;;767.75;734.58;;;;;;;9.60;65.80;98775.09;5038581;27;103606;-67
2023/10/17 02:13:04;;;;;;;777.65;743.38;;;;;;;9.86;65.14;98782.13;5040219;27;102703;-68
2023/10/17 02:15:34;;;;;;;755.03;722.38;;;;;;;9.07;66.71;98770.75;5040666;27;102711;-68
2023/10/17 02:18:12;;;;;;;718.08;687.33;;;;;;;9.38;65.67;98780.13;5038639;27;104155;-67
2023/10/17 02:20:48;;;;;;;790.28;755.50;;;;;;;9.89;64.59;98781.91;5039336;27;103242;-68
2023/10/17 02:23:19;;;;;;;776.80;741.75;;;;;;;9.73;62.98;98777.78;5039825;27;102679;-68
2023/10/17 02:25:50;;;;;;;747.95;715.75;;;;;;;9.48;65.55;98783.00;5042592;27;102644;-68
2023/10/17 02:28:20;;;;;;;725.70;694.83;;;;;;;9.52;65.08;98782.69;5040949;27;105311;-68
2023/10/17 02:30:48;;;;;;;776.60;741.45;;;;;;;10.23;63.41;98779.63;5039625;27;104337;-68
2023/10/17 02:33:18;;;;;;;857.78;816.50;;;;;;;10.33;61.81;98776.22;5042293;27;102929;-68
2023/10/17 02:36:05;;;;;;;912.75;866.33;;;;;;;10.70;60.98;98782.41;5039281;27;104800;-68
2023/10/17 02:38:32;;;;;;;909.00;863.57;;;;;;;10.74;59.40;98786.53;5039055;27;103307;-68
2023/10/17 02:41:01;;;;;;;882.20;839.30;;;;;;;10.64;59.42;98793.41;5040026;27;104239;-68
2023/10/17 02:43:37;;;;;;;910.95;865.90;;;;;;;10.57;59.08;98801.88;5038097;27;102971;-68
2023/10/17 02:46:05;;;;;;;848.30;808.63;;;;;;;10.47;59.89;98797.22;5038686;27;103157;-68
2023/10/17 02:48:38;;;;;;;804.90;768.45;;;;;;;9.78;60.90;98800.28;5038171;27;103625;-68
2023/10/17 02:51:11;;;;;;;767.28;733.70;;;;;;;9.76;63.98;98807.44;5041443;27;103275;-68
2023/10/17 02:53:43;;;;;;;771.53;738.05;;;;;;;9.01;63.81;98802.75;5036282;27;102716;-68
2023/10/17 02:56:20;;;;;;;738.00;706.28;;;;;;;9.79;62.98;98801.13;5040260;27;104486;-68
2023/10/17 02:58:59;;;;;;;843.72;803.28;;;;;;;10.43;61.43;98798.41;5038159;27;104490;-68
2023/10/17 03:01:27;;;;;;;844.13;804.03;;;;;;;9.78;60.70;98795.00;5037481;27;104436;-68
2023/10/17 03:03:56;;;;;;;783.00;747.83;;;;;;;10.11;61.69;98804.19;5037441;27;102728;-68
2023/10/17 03:06:24;;;;;;;774.83;739.60;;;;;;;10.03;61.00;98802.09;5038688;27;104976;-68
2023/10/17 03:08:52;;;;;;;698.83;670.00;;;;;;;8.43;66.70;98795.06;5038399;27;103945;-68
2023/10/17 03:11:35;;;;;;;735.90;704.63;;;;;;;9.20;64.88;98803.28;5036495;27;105604;-68
2023/10/17 03:14:12;;;;;;;759.83;726.35;;;;;;;9.80;63.16;98798.38;5038180;27;102820;-67
2023/10/17 03:16:40;;;;;;;730.75;699.05;;;;;;;9.62;63.60;98791.69;5039043;27;104043;-68
2023/10/17 03:19:12;;;;;;;715.78;686.13;;;;;;;9.29;66.14;98778.94;5038368;27;104018;-67
2023/10/17 03:21:43;;;;;;;726.95;696.42;;;;;;;9.51;65.68;98786.28;5037702;27;103229;-68
2023/10/17 03:24:13;;;;;;;737.08;704.90;;;;;;;9.27;64.64;98780.84;5041497;27;102938;-68
2023/10/17 03:26:41;;;;;;;761.20;728.58;;;;;;;9.51;64.35;98780.19;5039437;27;104069;-68
2023/10/17 03:29:18;;;;;;;713.65;683.90;;;;;;;9.30;66.20;98788.56;5039730;27;104052;-67
2023/10/17 03:31:48;;;;;;;729.28;698.53;;;;;;;9.27;65.65;98787.91;5037760;27;103519;-67
2023/10/17 03:34:34;;;;;;;746.10;713.90;;;;;;;9.68;64.38;98782.53;5037648;27;103030;-68
2023/10/17 03:39:53;;;;;;;818.97;780.60;;;;;;;10.53;61.83;98776.63;5037488;27;103331;-67
2023/10/17 03:42:41;;;;;;;803.38;766.80;;;;;;;9.93;61.76;98787.00;5037404;27;103239;-68
2023/10/17 03:45:16;;;;;;;740.30;708.22;;;;;;;9.73;63.20;98781.28;5037242;27;102998;-67
2023/10/17 03:47:48;;;;;;;674.93;647.73;;;;;;;8.57;68.09;98788.94;5036994;27;102958;-68
2023/10/17 03:50:31;;;;;;;694.15;665.58;;;;;;;8.80;67.79;98783.06;5035739;27;103325;-67
2023/10/17 03:53:05;;;;;;;695.22;666.83;;;;;;;9.14;67.70;98792.28;5036691;27;104168;-68
2023/10/17 03:55:35;;;;;;;707.93;678.50;;;;;;;9.14;67.12;98792.28;5040126;27;103443;-67
2023/10/17 03:58:08;;;;;;;720.72;690.65;;;;;;;8.83;66.94;98782.03;5036711;27;102880;-68
2023/10/17 04:00:45;;;;;;;716.47;686.00;;;;;;;9.47;66.02;98790.06;5034711;27;103877;-68
2023/10/17 04:03:21;;;;;;;721.90;691.45;;;;;;;9.26;66.10;98788.88;5038325;27;104219;-67
2023/10/17 04:05:51;;;;;;;715.75;685.65;;;;;;;8.54;67.86;98787.34;5030035;27;103300;-67
2023/10/17 04:08:26;;;;;;;690.40;662.33;;;;;;;8.63;68.91;98776.25;5039240;27;103812;-67
2023/10/17 04:11:08;;;;;;;703.63;674.97;;;;;;;8.98;68.93;98779.25;5037119;27;104024;-67
2023/10/17 04:13:37;;;;;;;750.42;718.00;;;;;;;9.64;65.24;98775.75;5038922;27;103265;-67
2023/10/17 04:16:10;;;;;;;799.20;762.50;;;;;;;10.35;63.56;98770.84;5036191;27;103088;-67
2023/10/17 04:18:38;;;;;;;813.20;775.58;;;;;;;10.32;61.85;98771.06;5036863;27;103631;-67
2023/10/17 04:21:18;;;;;;;753.67;720.22;;;;;;;9.71;63.84;98772.59;5035079;27;103060;-67
2023/10/17 04:23:49;;;;;;;822.28;783.45;;;;;;;10.41;62.67;98773.06;5037158;27;103243;-68
2023/10/17 04:26:19;;;;;;;889.13;844.90;;;;;;;10.71;61.54;98765.59;5035229;27;103086;-67
2023/10/17 04:28:49;;;;;;;926.33;879.83;;;;;;;10.83;60.50;98764.72;5039521;27;103411;-67
2023/10/17 04:31:25;;;;;;;907.30;861.50;;;;;;;10.87;59.57;98760.88;5039316;27;103691;-67
2023/10/17 04:34:05;;;;;;;877.40;834.97;;;;;;;10.64;59.53;98764.34;5036080;27;103953;-67
2023/10/17 04:36:37;;;;;;;790.50;754.83;;;;;;;10.00;61.19;98760.06;5038180;27;102585;-67
2023/10/17 04:39:18;;;;;;;732.15;700.97;;;;;;;9.48;64.80;98759.28;5038014;27;103522;-67
2023/10/17 04:44:51;;;;;;;709.87;680.50;;;;;;;9.44;66.40;98739.31;5109462;27;102755;-69
2023/10/17 04:47:29;;;;;;;714.23;684.40;;;;;;;9.48;66.79;98739.03;5099263;27;102777;-69
2023/10/17 04:50:01;;;;;;;732.28;700.88;;;;;;;9.67;65.31;98736.84;5098292;27;103746;-66
2023/10/17 04:52:40;;;;;;;747.67;715.53;;;;;;;9.27;65.24;98736.03;5080140;27;103224;-68
2023/10/17 04:55:18;;;;;;;735.33;704.13;;;;;;;9.29;66.30;98735.94;5094675;27;102846;-69
2023/10/17 04:57:56;;;;;;;706.87;677.37;;;;;;;8.93;68.18;98738.31;5093802;27;103519;-68
2023/10/17 05:00:51;;;;;;;734.40;703.17;;;;;;;9.78;66.63;98736.09;5097503;27;103726;-68
2023/10/17 05:03:26;;;;;;;768.17;734.77;;;;;;;9.74;64.76;98718.81;5078338;27;104105;-68
2023/10/17 05:06:18;;;;;;;730.13;698.83;;;;;;;9.39;66.19;98723.81;5076999;27;102923;-68
2023/10/17 05:09:00;;;;;;;760.92;727.65;;;;;;;9.97;64.71;98719.81;5097200;27;104026;-68
2023/10/17 06:18:19;;;;;;;717.60;687.13;;;;;;;9.70;67.27;98760.38;5083935;27;104381;-61
2023/10/17 06:32:06;;;;;;;818.10;779.20;;;;;;;10.99;61.36;98772.38;5083084;27;103392;-70
2023/10/17 06:34:33;;;;;;;837.25;796.80;;;;;;;10.83;61.83;98769.16;5082734;27;102896;-70
2023/10/17 06:37:07;;;;;;;773.03;737.67;;;;;;;10.46;63.17;98777.06;5081450;27;103867;-70
2023/10/17 06:39:37;;;;;;;809.42;771.20;;;;;;;10.47;62.67;98777.88;5080296;27;103276;-61
2023/10/17 06:42:15;;;;;;;783.25;747.95;;;;;;;10.42;64.19;98780.00;5082991;27;103590;-61
2023/10/17 06:44:52;;;;;;;769.40;735.00;;;;;;;10.58;64.25;98770.09;5065692;27;103025;-61
2023/10/17 06:47:22;;;;;;;798.63;761.65;;;;;;;10.67;62.38;98772.03;5065548;27;104000;-70
2023/10/17 06:52:54;;;;;;;785.15;748.90;;;;;;;10.50;63.30;98787.44;5064364;27;104093;-69
2023/10/17 06:55:28;;;;;;;807.72;768.97;;;;;;;11.11;62.09;98789.16;5080061;27;102932;-70
2023/10/17 06:58:08;;;;;;;845.97;804.28;;;;;;;11.30;61.41;98774.47;5071574;27;102883;-63
2023/10/17 07:00:49;;;;;;;803.28;765.20;;;;;;;10.63;63.46;98777.66;5073054;27;104131;-63
2023/10/17 07:03:24;;;;;;;808.90;771.23;;;;;;;10.93;63.66;98772.81;5078906;27;102896;-63
2023/10/17 07:05:55;;;;;;;782.45;746.65;;;;;;;10.34;64.98;98769.16;5081061;27;103149;-63
2023/10/17 07:08:30;;;;;;;807.97;769.73;;;;;;;10.97;64.24;98761.94;5075365;27;103960;-63
2023/10/17 07:11:05;;;;;;;801.42;764.92;;;;;;;10.74;64.57;98765.38;5064258;27;104389;-63
2023/10/17 07:13:54;;;;;;;780.40;745.17;;;;;;;11.20;64.69;98762.84;5080195;27;103260;-68
2023/10/17 07:16:27;;;;;;;868.55;823.90;;;;;;;12.06;61.60;98753.66;5063121;27;102640;-64
2023/10/17 07:18:57;;;;;;;947.57;896.30;;;;;;;12.22;60.21;98745.34;5075028;27;102992;-63
2023/10/17 07:21:27;;;;;;;947.10;896.35;;;;;;;12.03;59.24;98753.91;5072917;27;103054;-63
2023/10/17 07:23:55;;;;;;;956.83;904.42;;;;;;;12.63;59.55;98752.69;5076433;27;103268;-63
2023/10/17 07:26:38;;;;;;;988.97;933.45;;;;;;;12.93;58.41;98750.22;5081373;27;102721;-62
2023/10/17 07:29:06;;;;;;;997.47;939.63;;;;;;;13.26;58.01;98752.81;5079986;27;102706;-67
2023/10/17 07:31:36;;;;;;;1009.83;951.60;;;;;;;12.91;57.65;98749.53;5078129;27;103191;-65
2023/10/17 07:34:16;;;;;;;938.95;889.00;;;;;;;12.97;58.89;98741.03;5074784;27;103721;-62
2023/10/17 07:36:47;;;;;;;918.47;870.38;;;;;;;12.46;59.13;98750.53;5080215;27;103220;-61
2023/10/17 07:39:24;;;;;;;972.22;919.28;;;;;;;13.14;58.19;98748.50;5078575;27;102681;-67
2023/10/17 07:41:57;;;;;;;1030.65;970.13;;;;;;;13.68;57.33;98740.44;5078137;27;103218;-63
2023/10/17 07:44:29;;;;;;;1032.35;969.78;;;;;;;13.85;55.99;98744.31;5078830;27;103152;-63
2023/10/17 07:47:11;;;;;;;1014.27;954.57;;;;;;;13.66;56.15;98746.84;5085483;27;102874;-68
2023/10/17 07:49:41;;;;;;;1030.18;967.35;;;;;;;14.05;54.86;98738.16;5061011;27;104046;-67
2023/10/17 07:52:12;;;;;;;1032.83;969.00;;;;;;;13.92;54.76;98740.19;5075717;27;103988;-68
2023/10/17 07:54:46;;;;;;;1055.30;990.15;;;;;;;14.36;55.75;98745.19;5074827;27;103205;-68
2023/10/17 07:57:22;;;;;;;1054.85;988.80;;;;;;;14.25;54.43;98741.75;5084479;27;102792;-63
2023/10/17 07:59:52;;;;;;;1008.33;948.78;;;;;;;14.04;56.66;98728.50;5076799;27;103847;-63
2023/10/17 08:02:20;;;;;;;1042.35;978.45;;;;;;;14.24;55.13;98729.44;5079980;27;103281;-62
2023/10/17 08:04:49;;;;;;;1025.75;963.08;;;;;;;13.61;55.12;98730.47;5079554;27;103218;-68
2023/10/17 08:07:20;;;;;;;994.75;937.38;;;;;;;13.68;57.56;98736.94;5081069;27;102738;-63
2023/10/17 08:09:56;;;;;;;1033.32;969.67;;;;;;;14.42;55.39;98723.41;5079281;27;102642;-63
2023/10/17 08:12:29;;;;;;;1056.53;988.67;;;;;;;14.72;53.67;98724.31;5064289;27;104417;-63
2023/10/17 08:15:19;;;;;;;1035.27;969.80;;;;;;;14.46;54.12;98714.16;5063439;27;104166;-68
2023/10/17 08:17:48;;;;;;;1049.93;983.70;;;;;;;14.77;53.98;98722.09;5081281;27;102950;-68
2023/10/17 08:23:06;;;;;;;1037.35;973.95;;;;;;;14.45;56.37;98728.44;5080831;27;104219;-68
2023/10/17 08:25:40;;;;;;;1050.05;984.30;;;;;;;15.18;54.79;98721.91;5082295;27;103255;-68
2023/10/17 08:28:17;;;;;;;1049.40;983.28;;;;;;;14.70;54.36;98712.97;5083971;27;102543;-63
2023/10/17 08:30:51;;;;;;;1048.05;983.17;;;;;;;14.48;55.41;98720.19;5085220;27;103570;-68
2023/10/17 08:33:19;;;;;;;1059.35;992.08;;;;;;;14.69;54.84;98719.28;5082049;27;103287;-63
2023/10/17 08:35:53;;;;;;;1068.50;999.90;;;;;;;15.10;55.46;98724.41;5062849;27;102995;-62
2023/10/17 08:38:22;;;;;;;1074.07;999.90;;;;;;;15.28;54.64;98725.38;5084148;27;102646;-62
2023/10/17 08:40:57;;;;;;;1103.55;999.90;;;;;;;15.50;52.85;98721.63;5079433;27;102600;-67
2023/10/17 08:43:32;;;;;;;1111.10;999.90;;;;;;;15.62;51.54;98723.16;5080592;27;103326;-67
2023/10/17 08:46:00;;;;;;;1105.97;999.90;;;;;;;15.97;51.40;98710.06;5062893;27;103216;-62
2023/10/17 08:48:28;;;;;;;1141.20;999.90;;;;;;;16.09;51.36;98718.72;5065694;27;103142;-67
2023/10/17 08:50:57;;;;;;;1136.30;999.90;;;;;;;16.23;50.68;98731.59;5082254;27;102651;-63
2023/10/17 08:53:34;;;;;;;1144.22;999.90;;;;;;;16.26;51.50;98731.28;5081798;27;103515;-64
2023/10/17 08:56:07;;;;;;;1114.03;999.90;;;;;;;15.86;52.01;98733.38;5082132;27;103230;-65
2023/10/17 08:58:37;;;;;;;1087.72;999.90;;;;;;;15.77;52.65;98728.91;5063279;27;102784;-67
2023/10/17 09:01:16;;;;;;;1094.75;999.90;;;;;;;15.82;51.46;98721.31;5063109;27;102747;-65
2023/10/17 09:03:46;;;;;;;1090.18;999.90;;;;;;;16.37;50.15;98712.44;5078959;27;103267;-67
2023/10/17 09:06:29;;;;;;;1104.68;999.90;;;;;;;16.17;50.35;98714.34;5083752;27;103232;-63
2023/10/17 09:09:17;;;;;;;1093.38;999.90;;;;;;;16.46;50.39;98716.06;5064586;27;102728;-63
2023/10/17 09:14:52;;;;;;;1097.90;999.90;;;;;;;16.19;51.18;98720.41;5081264;27;102967;-63
2023/10/17 09:17:28;;;;;;;1086.38;999.90;;;;;;;15.77;52.46;98715.59;5085166;27;103419;-68
2023/10/17 09:20:05;;;;;;;1076.28;999.90;;;;;;;16.14;51.82;98716.47;5086011;27;103015;-67
2023/10/17 09:22:44;;;;;;;1089.63;999.90;;;;;;;16.69;50.47;98717.38;5084501;27;103052;-67
2023/10/17 09:25:22;;;;;;;1067.95;999.05;;;;;;;16.63;50.40;98710.81;5084330;27;103607;-65
2023/10/17 09:27:56;;;;;;;1070.65;999.90;;;;;;;16.57;49.92;98706.06;5064013;27;104108;-63
2023/10/17 09:30:30;;;;;;;1099.18;999.90;;;;;;;15.90;51.86;98705.44;5066153;27;102721;-63
2023/10/17 09:32:59;;;;;;;1108.60;999.90;;;;;;;16.43;51.12;98693.19;5085054;27;102791;-68
2023/10/17 09:35:28;;;;;;;1107.32;999.90;;;;;;;16.06;51.62;98692.34;5061460;27;104339;-64
2023/10/17 09:37:59;;;;;;;1122.72;999.90;;;;;;;16.26;52.13;98701.97;5066706;27;103312;-64
2023/10/17 09:40:29;;;;;;;1123.50;999.90;;;;;;;17.15;50.25;98698.53;5087641;27;102989;-65
2023/10/17 09:43:03;;;;;;;1108.72;999.90;;;;;;;17.34;50.34;98692.22;5087533;27;103133;-65
2023/10/17 09:45:34;;;;;;;1124.00;999.90;;;;;;;17.42;49.47;98694.97;5064092;27;103417;-67
2023/10/17 09:48:05;;;;;;;1104.47;999.90;;;;;;;16.90;50.30;98695.78;5086523;27;104423;-63
2023/10/17 09:50:37;;;;;;;1110.88;999.90;;;;;;;16.71;50.74;98700.25;5085770;27;102665;-62
2023/10/17 09:53:14;;;;;;;1117.17;999.90;;;;;;;16.84;50.64;98712.41;5063661;27;102872;-63
2023/10/17 09:55:50;;;;;;;1112.90;999.90;;;;;;;17.14;49.81;98712.06;5080449;27;104025;-63
2023/10/17 09:58:27;;;;;;;1094.80;999.90;;;;;;;16.76;49.94;98710.44;5086481;27;103190;-67
2023/10/17 10:01:01;;;;;;;1098.37;999.90;;;;;;;17.58;49.72;98705.81;5084634;27;102775;-63
2023/10/17 10:03:30;;;;;;;1071.70;999.90;;;;;;;18.30;47.47;98699.28;5085354;27;104113;-68
2023/10/17 10:06:19;;;;;;;1061.80;996.67;;;;;;;17.65;48.83;98706.03;5065743;27;103335;-64
2023/10/17 10:08:47;;;;;;;1063.53;997.53;;;;;;;17.83;48.54;98705.00;5082209;27;103168;-63
2023/10/17 10:11:16;;;;;;;1057.07;993.25;;;;;;;17.76;49.38;98711.13;5087528;27;103106;-68
2023/10/17 10:14:02;;;;;;;1051.15;987.08;;;;;;;18.07;47.71;98712.34;5066659;27;103753;-63
2023/10/17 10:16:50;;;;;;;1091.10;999.90;;;;;;;16.60;51.60;98710.28;5084343;27;103944;-67
2023/10/17 10:19:23;;;;;;;1059.32;995.17;;;;;;;17.66;49.23;98708.53;5064313;27;104114;-68
2023/10/17 10:21:59;;;;;;;1046.55;982.47;;;;;;;17.80;47.41;98705.31;5064239;27;102639;-68
2023/10/17 10:24:29;;;;;;;1068.95;999.90;;;;;;;17.90;49.45;98703.41;5079484;27;102754;-63
2023/10/17 10:27:24;;;;;;;1054.15;990.40;;;;;;;17.54;49.18;98704.44;5084695;27;103627;-63
2023/10/17 10:29:54;;;;;;;1065.63;999.33;;;;;;;17.74;49.60;98689.91;5062617;27;103442;-63
2023/10/17 10:32:38;;;;;;;1052.10;989.13;;;;;;;17.11;50.17;98702.50;5085172;27;102853;-66
2023/10/17 10:35:11;;;;;;;1060.70;995.70;;;;;;;17.57;49.72;98697.97;5084074;27;102808;-67
2023/10/17 10:37:52;;;;;;;1074.97;999.90;;;;;;;17.07;49.22;98701.13;5079179;27;103334;-68
2023/10/17 10:40:26;;;;;;;1062.28;997.33;;;;;;;18.11;48.69;98683.44;5084575;27;103159;-66
2023/10/17 10:42:58;;;;;;;1033.13;971.05;;;;;;;18.29;47.60;98678.88;5082648;27;102770;-63
2023/10/17 10:45:42;;;;;;;1058.00;994.92;;;;;;;18.48;47.55;98678.66;5082953;27;102704;-63
2023/10/17 10:48:15;;;;;;;1070.82;999.90;;;;;;;18.47;48.28;98676.94;5083022;27;104197;-62
2023/10/17 10:50:45;;;;;;;1081.00;999.90;;;;;;;18.10;48.97;98677.28;5079631;27;104067;-63
2023/10/17 10:53:20;;;;;;;1052.65;988.88;;;;;;;18.29;48.34;98670.84;5077392;27;102678;-63
2023/10/17 10:55:53;;;;;;;1085.15;999.90;;;;;;;18.13;49.26;98678.81;5083794;27;102620;-67
2023/10/17 10:58:21;;;;;;;1061.77;997.00;;;;;;;18.83;47.69;98681.13;5066461;27;104816;-63
2023/10/17 11:00:49;;;;;;;1080.57;999.90;;;;;;;17.93;49.14;98681.69;5081818;27;103482;-69
2023/10/17 11:03:19;;;;;;;1036.20;974.28;;;;;;;17.77;47.76;98678.91;5066435;27;103026;-68
2023/10/17 11:05:54;;;;;;;1073.15;999.90;;;;;;;16.40;52.22;98681.97;5067291;27;104011;-66
2023/10/17 11:08:24;;;;;;;1063.97;999.85;;;;;;;15.45;54.18;98690.09;5085708;27;104142;-65
2023/10/17 11:11:00;;;;;;;1083.10;999.90;;;;;;;16.14;54.00;98671.19;5086795;27;103243;-63
2023/10/17 11:13:36;;;;;;;1073.28;999.90;;;;;;;17.49;51.88;98674.63;5082757;27;102617;-67
2023/10/17 11:16:06;;;;;;;1072.72;999.90;;;;;;;18.03;49.43;98668.22;5084409;27;103287;-63
2023/10/17 11:18:39;;;;;;;1073.65;999.90;;;;;;;18.10;49.25;98669.28;5064881;27;104086;-67
2023/10/17 11:21:09;;;;;;;1052.50;990.13;;;;;;;15.69;53.76;98678.19;5084820;27;103205;-63
2023/10/17 11:23:40;;;;;;;1064.85;999.67;;;;;;;17.62;51.30;98668.94;5081242;27;102668;-64
2023/10/17 11:26:13;;;;;;;1073.50;999.90;;;;;;;15.00;56.32;98683.63;5083268;27;102609;-68
2023/10/17 11:28:55;;;;;;;1057.25;993.45;;;;;;;17.55;51.89;98674.06;5084749;27;103245;-62
2023/10/17 11:31:24;;;;;;;1058.45;994.45;;;;;;;18.63;49.25;98658.34;5086020;27;103719;-67
2023/10/17 11:33:56;;;;;;;1033.47;970.60;;;;;;;19.36;47.65;98653.94;5081070;27;102634;-62
2023/10/17 11:36:24;;;;;;;1063.13;998.25;;;;;;;19.09;48.62;98649.72;5064034;27;102974;-62
2023/10/17 11:38:57;;;;;;;1046.07;982.47;;;;;;;19.58;48.02;98641.72;5067821;27;103787;-64
2023/10/17 11:41:39;;;;;;;1037.13;973.85;;;;;;;19.52;46.47;98639.72;5084066;27;103189;-65
2023/10/17 11:44:09;;;;;;;1069.35;999.90;;;;;;;19.05;49.01;98635.00;5085211;27;104065;-64
2023/10/17 11:46:38;;;;;;;1039.00;975.90;;;;;;;19.59;47.35;98628.16;5085785;27;103973;-64
2023/10/17 11:49:20;;;;;;;1050.27;986.13;;;;;;;18.12;49.04;98626.31;5064246;27;104177;-63
2023/10/17 11:51:51;;;;;;;1064.32;998.15;;;;;;;19.14;48.61;98621.63;5083052;27;103253;-63
2023/10/17 11:54:22;;;;;;;1036.47;973.33;;;;;;;19.76;47.15;98623.59;5081616;27;102686;-63
2023/10/17 11:57:15;;;;;;;1024.00;962.47;;;;;;;18.56;48.46;98633.22;5083538;27;102619;-63
2023/10/17 11:59:56;;;;;;;1093.50;999.90;;;;;;;17.39;52.31;98631.19;5085048;27;103273;-63
2023/10/17 12:02:25;;;;;;;1066.45;999.50;;;;;;;19.20;49.04;98620.97;5082595;27;103201;-63
2023/10/17 12:04:56;;;;;;;1066.18;999.85;;;;;;;18.25;50.23;98613.34;5085387;27;102609;-67
2023/10/17 12:07:25;;;;;;;1044.82;980.97;;;;;;;19.34;48.36;98613.06;5062496;27;104301;-67
2023/10/17 12:09:53;;;;;;;1039.87;976.83;;;;;;;20.00;46.43;98612.84;5082791;27;103358;-63
2023/10/17 12:12:22;;;;;;;1033.07;970.58;;;;;;;16.59;52.18;98621.41;5060296;27;104396;-68
2023/10/17 12:14:53;;;;;;;1070.25;999.90;;;;;;;18.42;49.60;98609.72;5084512;27;102749;-63
2023/10/17 12:17:23;;;;;;;1075.57;999.90;;;;;;;18.26;50.28;98598.97;5063827;27;103662;-67
2023/10/17 12:19:52;;;;;;;1065.88;999.70;;;;;;;18.98;49.45;98607.22;5084162;27;103339;-65
2023/10/17 12:22:21;;;;;;;1064.97;999.58;;;;;;;17.44;51.41;98602.16;5087090;27;103185;-66
2023/10/17 12:24:49;;;;;;;1063.68;998.17;;;;;;;18.11;51.18;98589.88;5086666;27;103001;-67
2023/10/17 12:27:20;;;;;;;1052.15;987.00;;;;;;;18.73;48.35;98591.28;5068487;27;102678;-63
2023/10/17 12:29:53;;;;;;;1067.63;999.42;;;;;;;20.06;47.55;98579.97;5086953;27;103265;-67
2023/10/17 12:32:21;;;;;;;1033.80;971.78;;;;;;;19.57;47.05;98583.78;5085411;27;103243;-63
2023/10/17 12:34:49;;;;;;;1051.40;988.15;;;;;;;19.91;47.13;98579.00;5081340;27;102597;-64
2023/10/17 12:37:17;;;;;;;1074.53;999.90;;;;;;;19.83;47.96;98572.84;5085084;27;103638;-63
2023/10/17 12:39:47;;;;;;;1066.35;999.55;;;;;;;19.43;47.46;98563.03;5084846;27;103197;-63
2023/10/17 12:42:15;;;;;;;1054.32;989.88;;;;;;;19.99;46.62;98570.09;5079050;27;103268;-68
2023/10/17 12:44:44;;;;;;;1061.85;995.83;;;;;;;20.31;45.68;98563.81;5083609;27;102654;-64
2023/10/17 12:47:12;;;;;;;1072.83;999.90;;;;;;;20.66;45.39;98561.41;5082127;27;103106;-63
2023/10/17 12:49:40;;;;;;;1047.90;983.60;;;;;;;20.06;46.09;98566.56;5084327;27;103076;-69
2023/10/17 12:52:07;;;;;;;1068.75;999.90;;;;;;;19.41;48.10;98571.25;5080327;27;103299;-63